Nearby METAR Reports

 

KSJC - San Jose, California, USA
Distance from station: NE 9mi, 14km
Updated: Thu, 29-Jul-2021 11:53am PDT
Partly cloudy
Partly cloudy
 Wind from NNW
Wind: NNW 7 mph , 11 km/h
Temperature: 77°F , 25°C
Dew Point: 59°F , 15°C
Humidity: 54%
Barometer: 29.93 inHg , 1013.5 hPa
Clouds: Partly cloudy
Visibility: 10 miles , 16 km
Cloud details: Few Clouds 7000 ft
Partly cloudy 10000 ft
Partly cloudy 16000 ft
2021/07/29 18:53 KSJC 291853Z 34006KT 10SM FEW070 SCT100 SCT160 25/15 A2993 RMK AO2 SLP135 T02500150 $
KNUQ - Moffett Nas/Mtn, California, USA
Distance from station: N 9mi, 14km
Updated: Thu, 29-Jul-2021 11:50am PDT
Clear
Clear
 Wind from varies
Wind: varies 6 mph , 9 km/h
Temperature: 72°F , 22°C
Dew Point: 61°F , 16°C
Humidity: 69%
Barometer: 29.94 inHg , 1013.9 hPa
Clouds: Clear
Visibility: 10 miles , 16 km
2021/07/29 18:50 KNUQ 291850Z AUTO VRB05KT 10SM CLR 22/16 A2994 RMK AO2
KPAO - Palo Alto, California, USA
Distance from station: NNW 14mi, 23km
Updated: Thu, 29-Jul-2021 11:47am PDT
Clear
Clear
 Wind from N
Wind: N 9 mph , 15 km/h
Temperature: 70°F , 21°C
Dew Point: 61°F , 16°C
Humidity: 73%
Barometer: 29.95 inHg , 1014.2 hPa
Clouds: Clear
Visibility: 10 miles , 16 km
2021/07/29 18:47 KPAO 291847Z 35008KT 10SM SKC 21/16 A2995
 
KRHV - San Jose/Reid, California, USA
Distance from station: ENE 12mi, 19km
Updated: Thu, 29-Jul-2021 11:55am PDT
Partly cloudy
Partly cloudy
 Wind from NNW
Wind: NNW 3 mph , 6 km/h
Temperature: 82°F , 28°C
Heat Index: 82°F , 28°C
Dew Point: 57°F , 14°C
Humidity: 42%
Barometer: 29.94 inHg , 1013.9 hPa
Clouds: Partly cloudy
Visibility: 10 miles , 16 km
Cloud details: Partly cloudy 10000 ft
2021/07/29 18:55 KRHV 291855Z 33003KT 10SM SCT100 28/14 A2994
KOAK - Oakland, California, USA
Distance from station: NNW 31mi, 50km
Updated: Thu, 29-Jul-2021 11:53am PDT
Mostly cloudy
Mostly cloudy
 Wind from WNW
Wind: WNW 12 mph , 19 km/h
Temperature: 66°F , 19°C
Dew Point: 57°F , 14°C
Humidity: 73%
Barometer: 29.96 inHg , 1014.6 hPa
Clouds: Mostly cloudy
Visibility: 10 miles , 16 km
Cloud details: Few Clouds 1000 ft
Mostly cloudy 20000 ft
2021/07/29 18:53 KOAK 291853Z 30010KT 10SM FEW010 BKN200 19/14 A2996 RMK AO2 SLP143 T01940144
KSQL - San Carlos Airpo, California, USA
Distance from station: NW 21mi, 34km
Updated: Thu, 29-Jul-2021 11:55am PDT
Partly cloudy
Partly cloudy
 Wind from N
Wind: N 7 mph , 11 km/h
Temperature: 72°F , 22°C
Dew Point: 61°F , 16°C
Humidity: 69%
Barometer: 29.96 inHg , 1014.6 hPa
Clouds: Partly cloudy
Visibility: 10 miles , 16 km
Cloud details: Partly cloudy 20000 ft
2021/07/29 18:55 KSQL 291855Z 36006KT 10SM SCT200 22/16 A2996
 
KSFO - San Francisco, California, USA
Distance from station: NW 30mi, 49km
Updated: Thu, 29-Jul-2021 11:56am PDT
Mostly cloudy
Mostly cloudy
 Wind from WNW
Wind: WNW 14 mph , 22 km/h
Temperature: 70°F , 21°C
Dew Point: 57°F , 14°C
Humidity: 64%
Barometer: 29.94 inHg , 1013.9 hPa
Clouds: Mostly cloudy
Visibility: 10 miles , 16 km
Cloud details: Few Clouds 600 ft
Partly cloudy 14000 ft
Mostly cloudy 18000 ft
2021/07/29 18:56 KSFO 291856Z 30012KT 10SM FEW006 SCT140 BKN180 21/14 A2994 RMK AO2 SLP140 T02110139 $
KE16 - San Martin, California, USA
Distance from station: ESE 27mi, 43km
Updated: Thu, 29-Jul-2021 11:55am PDT
Clear
Clear
 Wind from SE
Wind: SE 5 mph , 7 km/h
Temperature: 81°F , 27°C
Heat Index: 81°F , 27°C
Dew Point: 55°F , 13°C
Humidity: 42%
Barometer: 29.95 inHg , 1014.2 hPa
Clouds: Clear
Visibility: 10 miles , 16 km
2021/07/29 18:55 KE16 291855Z AUTO 13004KT 10SM CLR 27/13 A2995 RMK AO2 PWINO PNO
KWVI - Watsonville, California, USA
Distance from station: SSE 27mi, 44km
Updated: Thu, 29-Jul-2021 11:53am PDT
Clear
Clear
 Wind from SW
Wind: SW 7 mph , 11 km/h
Temperature: 66°F , 19°C
Dew Point: 57°F , 14°C
Humidity: 73%
Barometer: 29.98 inHg , 1015.2 hPa
Clouds: Clear
Visibility: 10 miles , 16 km
2021/07/29 18:53 KWVI 291853Z AUTO 23006KT 10SM CLR 19/14 A2998 RMK AO2 SLP151 T01940139
 
KHAF - Half Moon Bay, California, USA
Distance from station: WNW 31mi, 50km
Updated: Fri, 09-Jul-2021 7:35am PDT
NOT Current
Light rain, Clear
Light rain, Clear
 
Temperature: 55°F , 13°C
Dew Point: 54°F , 12°C
Humidity: 94%
Barometer: 29.91 inHg , 1012.9 hPa
Summary: Light rain
Clouds: Clear
Visibility: 4 miles , 6 km
2021/07/09 14:35 KHAF 091435Z AUTO 4SM -RA CLR 13/12 A2991 RMK AO2
KHWD - Hayward, California, USA
Distance from station: N 28mi, 44km
Updated: Thu, 29-Jul-2021 11:54am PDT
Clear
Clear
 Wind from WNW
Wind: WNW 9 mph , 15 km/h
Temperature: 73°F , 23°C
Dew Point: 59°F , 15°C
Humidity: 61%
Barometer: 29.94 inHg , 1013.9 hPa
Clouds: Clear
Visibility: 10 miles , 16 km
2021/07/29 18:54 KHWD 291854Z 29008KT 10SM CLR 23/15 A2994 RMK AO2 SLP149 T02280150
KLVK - Livermore, California, USA
Distance from station: NNE 31mi, 51km
Updated: Thu, 29-Jul-2021 11:53am PDT
Clear
Clear
 Wind from W
Wind: W 5 mph , 7 km/h
Temperature: 88°F , 31°C
Dew Point: 54°F , 12°C
Humidity: 31%
Barometer: 29.91 inHg , 1012.9 hPa
Clouds: Clear
Visibility: 10 miles , 16 km
2021/07/29 18:53 KLVK 291853Z 28004KT 10SM CLR 31/12 A2991 RMK AO2 SLP123 T03110122